sensor_id;sensor_type;location;lat;lon;timestamp;pressure;altitude;pressure_sealevel;temperature;humidity
67842;BME280;54642;59.126;37.876;2023-06-19T00:01:19;100464.28;;;16.19;45.83
67842;BME280;54642;59.126;37.876;2023-06-19T00:03:45;100510.69;;;16.50;45.49
67842;BME280;54642;59.126;37.876;2023-06-19T00:06:11;100508.13;;;16.47;46.03
67842;BME280;54642;59.126;37.876;2023-06-19T00:08:38;100514.91;;;16.55;45.66
67842;BME280;54642;59.126;37.876;2023-06-19T00:11:07;100510.91;;;16.41;45.67
67842;BME280;54642;59.126;37.876;2023-06-19T00:13:33;100421.44;;;15.84;45.79
67842;BME280;54642;59.126;37.876;2023-06-19T00:16:00;100516.94;;;16.43;45.90
67842;BME280;54642;59.126;37.876;2023-06-19T00:18:27;100497.91;;;16.36;45.91
67842;BME280;54642;59.126;37.876;2023-06-19T00:20:53;100459.97;;;16.16;46.08
67842;BME280;54642;59.126;37.876;2023-06-19T00:23:24;100508.25;;;16.42;46.10
67842;BME280;54642;59.126;37.876;2023-06-19T00:25:50;100510.72;;;16.48;45.97
67842;BME280;54642;59.126;37.876;2023-06-19T00:28:16;100511.63;;;16.47;46.39
67842;BME280;54642;59.126;37.876;2023-06-19T00:30:45;100501.28;;;16.41;46.16
67842;BME280;54642;59.126;37.876;2023-06-19T00:33:13;100511.00;;;16.34;45.26
67842;BME280;54642;59.126;37.876;2023-06-19T00:35:39;100493.06;;;16.19;45.99
67842;BME280;54642;59.126;37.876;2023-06-19T00:38:07;100500.63;;;16.31;45.97
67842;BME280;54642;59.126;37.876;2023-06-19T00:40:33;100485.19;;;16.20;46.52
67842;BME280;54642;59.126;37.876;2023-06-19T00:43:00;100504.97;;;16.32;45.62
67842;BME280;54642;59.126;37.876;2023-06-19T00:45:27;100460.50;;;15.92;45.41
67842;BME280;54642;59.126;37.876;2023-06-19T00:47:54;100432.19;;;15.69;46.22
67842;BME280;54642;59.126;37.876;2023-06-19T00:50:21;100442.50;;;15.78;45.67
67842;BME280;54642;59.126;37.876;2023-06-19T00:52:47;100430.41;;;15.71;45.67
67842;BME280;54642;59.126;37.876;2023-06-19T00:55:15;100495.31;;;15.94;45.78
67842;BME280;54642;59.126;37.876;2023-06-19T00:57:42;100493.00;;;15.77;45.91
67842;BME280;54642;59.126;37.876;2023-06-19T01:00:09;100461.19;;;15.55;46.71
67842;BME280;54642;59.126;37.876;2023-06-19T01:02:39;100496.41;;;15.82;47.13
67842;BME280;54642;59.126;37.876;2023-06-19T01:05:05;100504.00;;;15.94;47.41
67842;BME280;54642;59.126;37.876;2023-06-19T01:07:55;100497.34;;;15.79;46.16
67842;BME280;54642;59.126;37.876;2023-06-19T01:10:39;100520.06;;;15.76;46.47
67842;BME280;54642;59.126;37.876;2023-06-19T01:13:10;100495.22;;;15.50;46.82
67842;BME280;54642;59.126;37.876;2023-06-19T01:15:37;100520.28;;;15.60;46.62
67842;BME280;54642;59.126;37.876;2023-06-19T01:18:04;100521.41;;;15.47;46.81
67842;BME280;54642;59.126;37.876;2023-06-19T01:20:30;100523.16;;;15.47;46.65
67842;BME280;54642;59.126;37.876;2023-06-19T01:22:56;100526.69;;;15.44;46.70
67842;BME280;54642;59.126;37.876;2023-06-19T01:25:23;100531.00;;;15.45;46.62
67842;BME280;54642;59.126;37.876;2023-06-19T01:27:50;100532.88;;;15.40;47.08
67842;BME280;54642;59.126;37.876;2023-06-19T01:30:16;100525.91;;;15.39;46.94
67842;BME280;54642;59.126;37.876;2023-06-19T01:33:04;100520.72;;;15.36;47.28
67842;BME280;54642;59.126;37.876;2023-06-19T01:35:35;100480.31;;;15.07;47.61
67842;BME280;54642;59.126;37.876;2023-06-19T01:38:02;100520.84;;;15.30;48.04
67842;BME280;54642;59.126;37.876;2023-06-19T01:40:29;100472.63;;;14.99;48.62
67842;BME280;54642;59.126;37.876;2023-06-19T01:42:59;100424.44;;;14.66;48.84
67842;BME280;54642;59.126;37.876;2023-06-19T01:45:32;100468.41;;;14.91;49.49
67842;BME280;54642;59.126;37.876;2023-06-19T01:47:59;100477.91;;;14.93;49.72
67842;BME280;54642;59.126;37.876;2023-06-19T01:50:25;100463.22;;;14.87;50.04
67842;BME280;54642;59.126;37.876;2023-06-19T01:52:51;100522.75;;;15.18;50.77
67842;BME280;54642;59.126;37.876;2023-06-19T01:55:18;100505.53;;;15.10;51.26
67842;BME280;54642;59.126;37.876;2023-06-19T01:57:44;100510.63;;;15.16;51.50
67842;BME280;54642;59.126;37.876;2023-06-19T02:00:12;100442.63;;;14.72;52.08
67842;BME280;54642;59.126;37.876;2023-06-19T02:02:41;100467.56;;;14.89;52.26
67842;BME280;54642;59.126;37.876;2023-06-19T02:05:07;100508.88;;;15.15;52.67
67842;BME280;54642;59.126;37.876;2023-06-19T02:07:33;100458.09;;;14.84;52.96
67842;BME280;54642;59.126;37.876;2023-06-19T02:09:59;100471.84;;;14.93;53.01
67842;BME280;54642;59.126;37.876;2023-06-19T02:12:25;100455.38;;;14.89;53.35
67842;BME280;54642;59.126;37.876;2023-06-19T02:14:52;100445.03;;;14.84;53.26
67842;BME280;54642;59.126;37.876;2023-06-19T02:17:18;100498.44;;;15.15;53.62
67842;BME280;54642;59.126;37.876;2023-06-19T02:19:44;100515.72;;;15.22;53.44
67842;BME280;54642;59.126;37.876;2023-06-19T02:22:11;100499.31;;;15.15;53.77
67842;BME280;54642;59.126;37.876;2023-06-19T02:24:36;100515.69;;;15.25;53.34
67842;BME280;54642;59.126;37.876;2023-06-19T02:27:04;100457.81;;;15.00;52.79
67842;BME280;54642;59.126;37.876;2023-06-19T02:29:30;100464.66;;;15.05;52.37
67842;BME280;54642;59.126;37.876;2023-06-19T02:31:59;100522.50;;;15.34;52.21
67842;BME280;54642;59.126;37.876;2023-06-19T02:34:26;100512.03;;;15.35;52.11
67842;BME280;54642;59.126;37.876;2023-06-19T02:36:52;100454.25;;;15.04;52.21
67842;BME280;54642;59.126;37.876;2023-06-19T02:39:18;100492.94;;;15.33;51.90
67842;BME280;54642;59.126;37.876;2023-06-19T02:41:44;100487.72;;;15.33;51.72
67842;BME280;54642;59.126;37.876;2023-06-19T02:44:14;100435.16;;;15.02;51.45
67842;BME280;54642;59.126;37.876;2023-06-19T02:46:43;100498.94;;;15.38;51.12
67842;BME280;54642;59.126;37.876;2023-06-19T02:49:08;100481.56;;;15.36;51.07
67842;BME280;54642;59.126;37.876;2023-06-19T02:51:34;100436.69;;;15.15;50.31
67842;BME280;54642;59.126;37.876;2023-06-19T02:54:00;100418.56;;;15.06;50.30
67842;BME280;54642;59.126;37.876;2023-06-19T02:56:26;100474.53;;;15.39;49.81
67842;BME280;54642;59.126;37.876;2023-06-19T02:58:53;100420.22;;;15.12;49.68
67842;BME280;54642;59.126;37.876;2023-06-19T03:01:19;100426.16;;;15.18;49.74
67842;BME280;54642;59.126;37.876;2023-06-19T03:03:44;100426.13;;;15.20;49.82
67842;BME280;54642;59.126;37.876;2023-06-19T03:06:12;100466.66;;;15.41;49.74
67842;BME280;54642;59.126;37.876;2023-06-19T03:08:40;100446.91;;;15.28;49.50
67842;BME280;54642;59.126;37.876;2023-06-19T03:11:06;100481.25;;;15.54;49.23
67842;BME280;54642;59.126;37.876;2023-06-19T03:13:45;100414.81;;;15.21;49.09
67842;BME280;54642;59.126;37.876;2023-06-19T03:16:12;100475.88;;;15.60;48.97
67842;BME280;54642;59.126;37.876;2023-06-19T03:18:37;100468.03;;;15.62;48.92
67842;BME280;54642;59.126;37.876;2023-06-19T03:21:03;100460.88;;;15.70;48.97
67842;BME280;54642;59.126;37.876;2023-06-19T03:23:29;100465.03;;;15.82;48.96
67842;BME280;54642;59.126;37.876;2023-06-19T03:25:55;100412.44;;;15.54;48.83
67842;BME280;54642;59.126;37.876;2023-06-19T03:28:23;100459.81;;;15.82;48.60
67842;BME280;54642;59.126;37.876;2023-06-19T03:30:50;100470.03;;;15.94;48.44
67842;BME280;54642;59.126;37.876;2023-06-19T03:33:20;100429.47;;;15.75;47.60
67842;BME280;54642;59.126;37.876;2023-06-19T03:35:46;100415.59;;;15.71;47.63
67842;BME280;54642;59.126;37.876;2023-06-19T03:38:22;100465.59;;;15.98;47.25
67842;BME280;54642;59.126;37.876;2023-06-19T03:40:49;100435.34;;;15.86;47.22
67842;BME280;54642;59.126;37.876;2023-06-19T03:43:15;100451.69;;;15.96;47.27
67842;BME280;54642;59.126;37.876;2023-06-19T03:45:43;100474.81;;;16.16;46.68
67842;BME280;54642;59.126;37.876;2023-06-19T03:48:09;100432.63;;;15.91;46.52
67842;BME280;54642;59.126;37.876;2023-06-19T03:50:35;100426.47;;;15.93;46.27
67842;BME280;54642;59.126;37.876;2023-06-19T03:53:01;100468.75;;;16.14;46.34
67842;BME280;54642;59.126;37.876;2023-06-19T03:55:27;100446.31;;;16.04;46.41
67842;BME280;54642;59.126;37.876;2023-06-19T03:57:52;100463.63;;;16.08;46.46
67842;BME280;54642;59.126;37.876;2023-06-19T04:00:18;100412.66;;;15.88;46.46
67842;BME280;54642;59.126;37.876;2023-06-19T04:02:45;100471.09;;;16.26;45.91
67842;BME280;54642;59.126;37.876;2023-06-19T04:05:14;100467.56;;;16.27;46.17
67842;BME280;54642;59.126;37.876;2023-06-19T04:07:42;100464.81;;;16.35;46.16
67842;BME280;54642;59.126;37.876;2023-06-19T04:10:08;100398.28;;;16.08;45.83
67842;BME280;54642;59.126;37.876;2023-06-19T04:12:34;100408.56;;;16.17;45.68
67842;BME280;54642;59.126;37.876;2023-06-19T04:15:00;100421.28;;;16.31;45.49
67842;BME280;54642;59.126;37.876;2023-06-19T04:17:26;100411.63;;;16.34;45.28
67842;BME280;54642;59.126;37.876;2023-06-19T04:19:52;100452.81;;;16.64;45.15
67842;BME280;54642;59.126;37.876;2023-06-19T04:22:19;100440.53;;;16.67;45.26
67842;BME280;54642;59.126;37.876;2023-06-19T04:24:45;100387.13;;;16.38;45.01
67842;BME280;54642;59.126;37.876;2023-06-19T04:27:10;100396.59;;;16.44;44.56
67842;BME280;54642;59.126;37.876;2023-06-19T04:29:37;100414.53;;;16.59;44.89
67842;BME280;54642;59.126;37.876;2023-06-19T04:32:03;100441.28;;;16.72;44.59
67842;BME280;54642;59.126;37.876;2023-06-19T04:34:38;100448.97;;;16.78;44.34
67842;BME280;54642;59.126;37.876;2023-06-19T04:37:05;100448.19;;;16.75;44.69
67842;BME280;54642;59.126;37.876;2023-06-19T04:39:32;100441.28;;;16.72;44.55
67842;BME280;54642;59.126;37.876;2023-06-19T04:41:58;100416.25;;;16.61;44.38
67842;BME280;54642;59.126;37.876;2023-06-19T04:44:24;100450.84;;;16.73;44.25
67842;BME280;54642;59.126;37.876;2023-06-19T04:46:50;100441.34;;;16.69;44.10
67842;BME280;54642;59.126;37.876;2023-06-19T04:49:15;100438.72;;;16.69;44.04
67842;BME280;54642;59.126;37.876;2023-06-19T04:51:41;100447.44;;;16.70;44.35
67842;BME280;54642;59.126;37.876;2023-06-19T04:54:07;100447.56;;;16.65;44.05
67842;BME280;54642;59.126;37.876;2023-06-19T04:56:36;100380.41;;;16.28;44.20
67842;BME280;54642;59.126;37.876;2023-06-19T04:59:01;100450.91;;;16.70;44.28
67842;BME280;54642;59.126;37.876;2023-06-19T05:01:28;100391.50;;;16.38;44.17
67842;BME280;54642;59.126;37.876;2023-06-19T05:03:55;100394.00;;;16.43;44.36
67842;BME280;54642;59.126;37.876;2023-06-19T05:06:25;100442.09;;;16.74;44.44
67842;BME280;54642;59.126;37.876;2023-06-19T05:08:51;100411.81;;;16.64;43.89
67842;BME280;54642;59.126;37.876;2023-06-19T05:11:18;100444.16;;;16.99;43.67
67842;BME280;54642;59.126;37.876;2023-06-19T05:13:44;100457.06;;;17.05;43.73
67842;BME280;54642;59.126;37.876;2023-06-19T05:16:10;100454.13;;;17.18;43.23
67842;BME280;54642;59.126;37.876;2023-06-19T05:18:37;100445.53;;;17.12;43.15
67842;BME280;54642;59.126;37.876;2023-06-19T05:21:03;100439.56;;;17.07;43.38
67842;BME280;54642;59.126;37.876;2023-06-19T05:23:33;100390.66;;;16.72;43.36
67842;BME280;54642;59.126;37.876;2023-06-19T05:26:00;100403.63;;;16.78;43.02
67842;BME280;54642;59.126;37.876;2023-06-19T05:28:26;100438.16;;;16.94;43.13
67842;BME280;54642;59.126;37.876;2023-06-19T05:30:52;100431.06;;;16.99;43.27
67842;BME280;54642;59.126;37.876;2023-06-19T05:33:18;100424.78;;;17.05;42.97
67842;BME280;54642;59.126;37.876;2023-06-19T05:35:44;100433.72;;;17.30;42.57
67842;BME280;54642;59.126;37.876;2023-06-19T05:38:17;100330.66;;;17.00;42.25
67842;BME280;54642;59.126;37.876;2023-06-19T05:40:42;100416.94;;;17.69;41.69
67842;BME280;54642;59.126;37.876;2023-06-19T05:43:08;100409.63;;;17.80;41.11
67842;BME280;54642;59.126;37.876;2023-06-19T05:45:34;100431.00;;;17.98;40.10
67842;BME280;54642;59.126;37.876;2023-06-19T05:48:00;100421.56;;;18.20;40.19
67842;BME280;54642;59.126;37.876;2023-06-19T05:50:26;100417.78;;;18.29;40.21
67842;BME280;54642;59.126;37.876;2023-06-19T05:52:52;100390.81;;;18.25;40.23
67842;BME280;54642;59.126;37.876;2023-06-19T05:55:18;100392.72;;;18.20;40.00
67842;BME280;54642;59.126;37.876;2023-06-19T05:57:44;100430.66;;;18.37;40.45
67842;BME280;54642;59.126;37.876;2023-06-19T06:00:13;100427.34;;;18.32;40.73
67842;BME280;54642;59.126;37.876;2023-06-19T06:02:40;100380.81;;;18.10;40.55
67842;BME280;54642;59.126;37.876;2023-06-19T06:05:07;100407.22;;;18.32;40.70
67842;BME280;54642;59.126;37.876;2023-06-19T06:07:34;100428.28;;;18.57;40.87
67842;BME280;54642;59.126;37.876;2023-06-19T06:10:01;100391.53;;;18.57;40.69
67842;BME280;54642;59.126;37.876;2023-06-19T06:12:27;100422.06;;;18.88;40.26
67842;BME280;54642;59.126;37.876;2023-06-19T06:14:53;100422.59;;;18.71;40.56
67842;BME280;54642;59.126;37.876;2023-06-19T06:17:19;100421.31;;;18.56;40.50
67842;BME280;54642;59.126;37.876;2023-06-19T06:19:47;100383.09;;;18.21;40.88
67842;BME280;54642;59.126;37.876;2023-06-19T06:22:13;100416.09;;;18.28;41.17
67842;BME280;54642;59.126;37.876;2023-06-19T06:24:39;100425.53;;;18.34;41.43
67842;BME280;54642;59.126;37.876;2023-06-19T06:27:05;100391.19;;;18.13;41.64
67842;BME280;54642;59.126;37.876;2023-06-19T06:29:31;100367.34;;;17.93;41.05
67842;BME280;54642;59.126;37.876;2023-06-19T06:32:04;100425.09;;;18.19;41.57
67842;BME280;54642;59.126;37.876;2023-06-19T06:34:33;100415.41;;;18.21;41.49
67842;BME280;54642;59.126;37.876;2023-06-19T06:37:02;100372.50;;;17.96;41.94
67842;BME280;54642;59.126;37.876;2023-06-19T06:39:28;100315.94;;;17.57;41.91
67842;BME280;54642;59.126;37.876;2023-06-19T06:41:54;100366.63;;;17.87;41.86
67842;BME280;54642;59.126;37.876;2023-06-19T06:44:20;100420.06;;;18.12;42.01
67842;BME280;54642;59.126;37.876;2023-06-19T06:46:46;100407.28;;;18.01;41.85
67842;BME280;54642;59.126;37.876;2023-06-19T06:49:12;100363.31;;;17.79;41.88
67842;BME280;54642;59.126;37.876;2023-06-19T06:51:38;100394.28;;;17.98;41.84
67842;BME280;54642;59.126;37.876;2023-06-19T06:54:03;100365.06;;;17.80;41.83
67842;BME280;54642;59.126;37.876;2023-06-19T06:56:29;100405.44;;;18.04;41.63
67842;BME280;54642;59.126;37.876;2023-06-19T06:58:55;100361.59;;;17.80;41.70
67842;BME280;54642;59.126;37.876;2023-06-19T07:01:21;100407.06;;;18.08;42.03
67842;BME280;54642;59.126;37.876;2023-06-19T07:03:47;100415.13;;;18.02;42.18
67842;BME280;54642;59.126;37.876;2023-06-19T07:06:13;100351.34;;;17.70;41.66
67842;BME280;54642;59.126;37.876;2023-06-19T07:08:39;100360.06;;;17.72;41.98
67842;BME280;54642;59.126;37.876;2023-06-19T07:11:07;100406.59;;;17.96;41.74
67842;BME280;54642;59.126;37.876;2023-06-19T07:13:33;100408.22;;;18.00;42.07
67842;BME280;54642;59.126;37.876;2023-06-19T07:15:59;100391.78;;;17.93;41.87
67842;BME280;54642;59.126;37.876;2023-06-19T07:18:27;100403.84;;;17.99;42.00
67842;BME280;54642;59.126;37.876;2023-06-19T07:20:53;100385.94;;;17.83;42.09
67842;BME280;54642;59.126;37.876;2023-06-19T07:23:19;100404.75;;;17.99;42.30
67842;BME280;54642;59.126;37.876;2023-06-19T07:25:46;100346.06;;;17.72;42.48
67842;BME280;54642;59.126;37.876;2023-06-19T07:28:13;100354.63;;;17.79;42.12
67842;BME280;54642;59.126;37.876;2023-06-19T07:30:39;100379.44;;;17.97;42.34
67842;BME280;54642;59.126;37.876;2023-06-19T07:33:05;100333.88;;;17.71;42.55
67842;BME280;54642;59.126;37.876;2023-06-19T07:35:31;100339.84;;;17.76;42.23
67842;BME280;54642;59.126;37.876;2023-06-19T07:37:57;100349.00;;;17.93;42.20
67842;BME280;54642;59.126;37.876;2023-06-19T07:40:23;100373.19;;;18.29;41.80
67842;BME280;54642;59.126;37.876;2023-06-19T07:42:49;100389.94;;;18.53;41.51
67842;BME280;54642;59.126;37.876;2023-06-19T07:45:14;100369.28;;;18.69;41.36
67842;BME280;54642;59.126;37.876;2023-06-19T07:47:40;100377.47;;;18.86;41.06
67842;BME280;54642;59.126;37.876;2023-06-19T07:50:07;100285.16;;;18.47;41.01
67842;BME280;54642;59.126;37.876;2023-06-19T07:52:33;100382.09;;;19.05;40.89
67842;BME280;54642;59.126;37.876;2023-06-19T07:54:59;100381.22;;;19.04;40.72
67842;BME280;54642;59.126;37.876;2023-06-19T07:57:26;100360.63;;;18.92;40.71
67842;BME280;54642;59.126;37.876;2023-06-19T07:59:53;100367.63;;;18.93;40.81
67842;BME280;54642;59.126;37.876;2023-06-19T08:02:19;100383.69;;;18.84;40.37
67842;BME280;54642;59.126;37.876;2023-06-19T08:04:46;100373.09;;;18.87;40.91
67842;BME280;54642;59.126;37.876;2023-06-19T08:07:12;100364.19;;;18.91;40.72
67842;BME280;54642;59.126;37.876;2023-06-19T08:09:38;100333.16;;;19.02;40.17
67842;BME280;54642;59.126;37.876;2023-06-19T08:12:05;100349.97;;;19.46;40.54
67842;BME280;54642;59.126;37.876;2023-06-19T08:14:31;100335.84;;;19.72;40.00
67842;BME280;54642;59.126;37.876;2023-06-19T08:16:57;100355.88;;;19.99;39.84
67842;BME280;54642;59.126;37.876;2023-06-19T08:19:23;100342.63;;;20.01;39.15
67842;BME280;54642;59.126;37.876;2023-06-19T08:21:48;100346.19;;;20.22;39.36
67842;BME280;54642;59.126;37.876;2023-06-19T08:24:14;100303.91;;;20.27;39.25
67842;BME280;54642;59.126;37.876;2023-06-19T08:26:40;100339.41;;;20.59;38.70
67842;BME280;54642;59.126;37.876;2023-06-19T08:29:06;100328.72;;;20.42;38.09
67842;BME280;54642;59.126;37.876;2023-06-19T08:31:32;100285.75;;;19.98;38.70
67842;BME280;54642;59.126;37.876;2023-06-19T08:33:59;100321.59;;;20.23;39.20
67842;BME280;54642;59.126;37.876;2023-06-19T08:36:26;100342.28;;;20.32;39.02
67842;BME280;54642;59.126;37.876;2023-06-19T08:38:51;100324.03;;;20.28;38.43
67842;BME280;54642;59.126;37.876;2023-06-19T08:41:19;100306.25;;;20.12;38.19
67842;BME280;54642;59.126;37.876;2023-06-19T08:43:45;100280.59;;;19.95;38.30
67842;BME280;54642;59.126;37.876;2023-06-19T08:46:17;100274.00;;;19.85;38.29
67842;BME280;54642;59.126;37.876;2023-06-19T08:48:49;100312.13;;;19.97;38.90
67842;BME280;54642;59.126;37.876;2023-06-19T08:51:15;100327.28;;;19.90;38.63
67842;BME280;54642;59.126;37.876;2023-06-19T08:53:46;100224.38;;;19.32;38.49
67842;BME280;54642;59.126;37.876;2023-06-19T08:56:12;100280.22;;;19.60;38.85
67842;BME280;54642;59.126;37.876;2023-06-19T08:58:38;100283.84;;;19.56;39.55
67842;BME280;54642;59.126;37.876;2023-06-19T09:01:04;100319.63;;;19.84;39.21
67842;BME280;54642;59.126;37.876;2023-06-19T09:03:30;100313.38;;;19.87;38.81
67842;BME280;54642;59.126;37.876;2023-06-19T09:05:56;100325.38;;;19.94;38.75
67842;BME280;54642;59.126;37.876;2023-06-19T09:08:22;100288.44;;;19.75;38.68
67842;BME280;54642;59.126;37.876;2023-06-19T09:10:56;100264.38;;;19.62;39.18
67842;BME280;54642;59.126;37.876;2023-06-19T09:13:22;100322.22;;;19.86;39.49
67842;BME280;54642;59.126;37.876;2023-06-19T09:15:56;100279.91;;;19.68;39.72
67842;BME280;54642;59.126;37.876;2023-06-19T09:18:23;100306.13;;;19.93;40.15
67842;BME280;54642;59.126;37.876;2023-06-19T09:20:53;100290.91;;;20.02;40.64
67842;BME280;54642;59.126;37.876;2023-06-19T09:23:19;100291.25;;;20.14;40.47
67842;BME280;54642;59.126;37.876;2023-06-19T09:25:50;100237.91;;;19.89;40.17
67842;BME280;54642;59.126;37.876;2023-06-19T09:28:25;100250.84;;;19.95;40.05
67842;BME280;54642;59.126;37.876;2023-06-19T09:30:56;100318.28;;;20.18;40.93
67842;BME280;54642;59.126;37.876;2023-06-19T09:33:24;100277.44;;;20.09;40.45
67842;BME280;54642;59.126;37.876;2023-06-19T09:35:50;100237.13;;;19.87;40.17
67842;BME280;54642;59.126;37.876;2023-06-19T09:38:17;100277.69;;;20.03;40.35
67842;BME280;54642;59.126;37.876;2023-06-19T09:40:47;100273.25;;;20.26;40.20
67842;BME280;54642;59.126;37.876;2023-06-19T09:43:19;100240.31;;;20.15;40.04
67842;BME280;54642;59.126;37.876;2023-06-19T09:45:49;100253.72;;;20.52;39.92
67842;BME280;54642;59.126;37.876;2023-06-19T09:48:19;100213.25;;;20.34;39.99
67842;BME280;54642;59.126;37.876;2023-06-19T09:50:54;100202.56;;;20.37;39.57
67842;BME280;54642;59.126;37.876;2023-06-19T09:53:25;100218.13;;;20.43;39.79
67842;BME280;54642;59.126;37.876;2023-06-19T09:55:51;100255.09;;;20.61;40.14
67842;BME280;54642;59.126;37.876;2023-06-19T09:58:19;100255.75;;;20.45;40.18
67842;BME280;54642;59.126;37.876;2023-06-19T10:00:46;100252.72;;;20.34;40.58
67842;BME280;54642;59.126;37.876;2023-06-19T10:03:13;100206.34;;;19.89;40.25
67842;BME280;54642;59.126;37.876;2023-06-19T10:05:40;100262.19;;;20.17;40.40
67842;BME280;54642;59.126;37.876;2023-06-19T10:08:06;100247.44;;;20.13;41.37
67842;BME280;54642;59.126;37.876;2023-06-19T10:10:32;100218.88;;;20.04;41.50
67842;BME280;54642;59.126;37.876;2023-06-19T10:13:11;100240.97;;;20.43;41.93
67842;BME280;54642;59.126;37.876;2023-06-19T10:15:44;100226.38;;;20.54;41.15
67842;BME280;54642;59.126;37.876;2023-06-19T10:18:15;100239.50;;;20.56;41.04
67842;BME280;54642;59.126;37.876;2023-06-19T10:20:45;100223.38;;;20.43;40.75
67842;BME280;54642;59.126;37.876;2023-06-19T10:23:14;100233.91;;;20.43;40.84
67842;BME280;54642;59.126;37.876;2023-06-19T10:25:45;100173.03;;;20.10;41.08
67842;BME280;54642;59.126;37.876;2023-06-19T10:28:21;100230.88;;;20.32;41.07
67842;BME280;54642;59.126;37.876;2023-06-19T10:30:59;100179.69;;;19.98;41.56
67842;BME280;54642;59.126;37.876;2023-06-19T10:33:32;100222.50;;;20.22;41.56
67842;BME280;54642;59.126;37.876;2023-06-19T10:36:15;100182.50;;;19.93;41.94
67842;BME280;54642;59.126;37.876;2023-06-19T10:38:41;100201.31;;;20.05;41.72
67842;BME280;54642;59.126;37.876;2023-06-19T10:41:20;100233.16;;;20.19;42.16
67842;BME280;54642;59.126;37.876;2023-06-19T10:46:21;100219.22;;;20.17;42.30
67842;BME280;54642;59.126;37.876;2023-06-19T10:48:47;100219.94;;;20.21;42.59
67842;BME280;54642;59.126;37.876;2023-06-19T10:51:18;100211.75;;;20.28;42.56
67842;BME280;54642;59.126;37.876;2023-06-19T10:53:44;100160.22;;;20.02;42.39
67842;BME280;54642;59.126;37.876;2023-06-19T10:56:10;100204.47;;;20.33;41.57
67842;BME280;54642;59.126;37.876;2023-06-19T10:58:35;100173.09;;;20.08;41.96
67842;BME280;54642;59.126;37.876;2023-06-19T11:01:01;100203.97;;;20.25;41.33
67842;BME280;54642;59.126;37.876;2023-06-19T11:03:28;100207.44;;;20.26;41.06
67842;BME280;54642;59.126;37.876;2023-06-19T11:05:54;100164.31;;;20.09;41.24
67842;BME280;54642;59.126;37.876;2023-06-19T11:08:21;100176.94;;;20.22;41.07
67842;BME280;54642;59.126;37.876;2023-06-19T11:10:48;100185.22;;;20.33;41.53
67842;BME280;54642;59.126;37.876;2023-06-19T11:13:18;100172.13;;;20.31;41.38
67842;BME280;54642;59.126;37.876;2023-06-19T11:15:44;100194.91;;;20.32;41.71
67842;BME280;54642;59.126;37.876;2023-06-19T11:18:11;100141.00;;;20.21;42.15
67842;BME280;54642;59.126;37.876;2023-06-19T11:20:48;100152.31;;;20.23;41.88
67842;BME280;54642;59.126;37.876;2023-06-19T11:23:16;100160.94;;;20.26;41.50
67842;BME280;54642;59.126;37.876;2023-06-19T11:25:43;100138.78;;;20.11;41.27
67842;BME280;54642;59.126;37.876;2023-06-19T11:28:13;100137.88;;;20.12;41.55
67842;BME280;54642;59.126;37.876;2023-06-19T11:30:40;100130.88;;;20.11;41.79
67842;BME280;54642;59.126;37.876;2023-06-19T11:33:21;100172.66;;;20.40;41.76
67842;BME280;54642;59.126;37.876;2023-06-19T11:35:52;100139.16;;;20.23;41.38
67842;BME280;54642;59.126;37.876;2023-06-19T11:38:23;100170.84;;;20.40;41.41
67842;BME280;54642;59.126;37.876;2023-06-19T11:40:50;100170.50;;;20.48;41.29
67842;BME280;54642;59.126;37.876;2023-06-19T11:43:24;100175.19;;;20.62;41.07
67842;BME280;54642;59.126;37.876;2023-06-19T11:45:52;100163.56;;;20.86;40.90
67842;BME280;54642;59.126;37.876;2023-06-19T11:48:23;100155.88;;;21.01;40.51
67842;BME280;54642;59.126;37.876;2023-06-19T11:50:49;100104.34;;;20.76;40.90
67842;BME280;54642;59.126;37.876;2023-06-19T11:53:14;100105.91;;;20.80;40.71
67842;BME280;54642;59.126;37.876;2023-06-19T11:55:41;100147.47;;;21.11;40.82
67842;BME280;54642;59.126;37.876;2023-06-19T11:58:07;100154.72;;;21.06;40.77
67842;BME280;54642;59.126;37.876;2023-06-19T12:00:33;100071.13;;;20.53;40.93
67842;BME280;54642;59.126;37.876;2023-06-19T12:02:59;100152.72;;;20.92;41.00
67842;BME280;54642;59.126;37.876;2023-06-19T12:05:24;100116.78;;;20.72;40.90
67842;BME280;54642;59.126;37.876;2023-06-19T12:07:50;100152.03;;;20.89;40.89
67842;BME280;54642;59.126;37.876;2023-06-19T12:10:16;100145.19;;;20.85;40.91
67842;BME280;54642;59.126;37.876;2023-06-19T12:12:42;100128.81;;;20.78;40.78
67842;BME280;54642;59.126;37.876;2023-06-19T12:15:08;100082.25;;;20.60;40.91
67842;BME280;54642;59.126;37.876;2023-06-19T12:17:35;100129.97;;;20.91;40.85
67842;BME280;54642;59.126;37.876;2023-06-19T12:20:02;100047.94;;;20.42;40.89
67842;BME280;54642;59.126;37.876;2023-06-19T12:22:32;100068.91;;;20.64;41.14
67842;BME280;54642;59.126;37.876;2023-06-19T12:24:59;100120.56;;;20.86;41.07
67842;BME280;54642;59.126;37.876;2023-06-19T12:27:25;100116.28;;;20.83;41.18
67842;BME280;54642;59.126;37.876;2023-06-19T12:29:51;100103.97;;;20.65;41.04
67842;BME280;54642;59.126;37.876;2023-06-19T12:32:17;100117.38;;;20.79;41.11
67842;BME280;54642;59.126;37.876;2023-06-19T12:34:43;100121.69;;;20.99;41.12
67842;BME280;54642;59.126;37.876;2023-06-19T12:37:14;100094.38;;;21.02;41.00
67842;BME280;54642;59.126;37.876;2023-06-19T12:39:41;100092.50;;;21.04;40.72
67842;BME280;54642;59.126;37.876;2023-06-19T12:42:10;100077.03;;;20.96;40.84
67842;BME280;54642;59.126;37.876;2023-06-19T12:44:39;100089.50;;;20.92;41.25